sensor_id;sensor_type;location;lat;lon;timestamp;pressure;altitude;pressure_sealevel;temperature;humidity
56270;BME280;42176;43.240;27.880;2023-03-01T00:00:38;101165.44;;;3.96;100.00
56270;BME280;42176;43.240;27.880;2023-03-01T00:03:03;101169.31;;;4.14;100.00
56270;BME280;42176;43.240;27.880;2023-03-01T00:05:29;101169.56;;;4.26;100.00
56270;BME280;42176;43.240;27.880;2023-03-01T00:07:54;101164.69;;;4.45;100.00
56270;BME280;42176;43.240;27.880;2023-03-01T00:10:20;101162.81;;;3.94;100.00
56270;BME280;42176;43.240;27.880;2023-03-01T00:12:45;101168.81;;;3.89;100.00
56270;BME280;42176;43.240;27.880;2023-03-01T00:15:10;101169.19;;;4.07;100.00
56270;BME280;42176;43.240;27.880;2023-03-01T00:17:36;101179.97;;;4.20;100.00
56270;BME280;42176;43.240;27.880;2023-03-01T00:20:02;101163.63;;;4.36;100.00
56270;BME280;42176;43.240;27.880;2023-03-01T00:22:28;101164.34;;;3.86;100.00
56270;BME280;42176;43.240;27.880;2023-03-01T00:24:53;101149.78;;;3.99;100.00
56270;BME280;42176;43.240;27.880;2023-03-01T00:27:19;101166.41;;;4.42;100.00
56270;BME280;42176;43.240;27.880;2023-03-01T00:29:45;101104.44;;;3.65;100.00
56270;BME280;42176;43.240;27.880;2023-03-01T00:32:10;101173.72;;;3.73;100.00
56270;BME280;42176;43.240;27.880;2023-03-01T00:34:35;101168.09;;;3.97;100.00
56270;BME280;42176;43.240;27.880;2023-03-01T00:37:01;101176.53;;;4.24;100.00
56270;BME280;42176;43.240;27.880;2023-03-01T00:39:31;101137.84;;;4.14;100.00
56270;BME280;42176;43.240;27.880;2023-03-01T00:41:57;101085.78;;;3.51;100.00
56270;BME280;42176;43.240;27.880;2023-03-01T00:44:22;101148.25;;;4.10;100.00
56270;BME280;42176;43.240;27.880;2023-03-01T00:46:48;101125.94;;;4.31;100.00
56270;BME280;42176;43.240;27.880;2023-03-01T00:49:13;101134.91;;;4.42;100.00
56270;BME280;42176;43.240;27.880;2023-03-01T00:51:39;101124.63;;;4.55;100.00
56270;BME280;42176;43.240;27.880;2023-03-01T00:54:08;101124.75;;;4.61;100.00
56270;BME280;42176;43.240;27.880;2023-03-01T00:56:33;101095.78;;;4.58;100.00
56270;BME280;42176;43.240;27.880;2023-03-01T00:58:59;101109.72;;;4.54;100.00
56270;BME280;42176;43.240;27.880;2023-03-01T01:01:27;101113.00;;;3.56;100.00
56270;BME280;42176;43.240;27.880;2023-03-01T01:04:01;101113.41;;;3.35;100.00
56270;BME280;42176;43.240;27.880;2023-03-01T01:06:31;101113.41;;;3.75;100.00
56270;BME280;42176;43.240;27.880;2023-03-01T01:08:57;101118.28;;;3.99;100.00
56270;BME280;42176;43.240;27.880;2023-03-01T01:11:26;101094.22;;;4.19;100.00
56270;BME280;42176;43.240;27.880;2023-03-01T01:13:52;101097.91;;;4.30;100.00
56270;BME280;42176;43.240;27.880;2023-03-01T01:16:19;101086.69;;;3.52;100.00
56270;BME280;42176;43.240;27.880;2023-03-01T01:18:45;101097.88;;;3.44;100.00
56270;BME280;42176;43.240;27.880;2023-03-01T01:21:13;101110.09;;;3.84;100.00
56270;BME280;42176;43.240;27.880;2023-03-01T01:23:40;101107.97;;;4.08;100.00
56270;BME280;42176;43.240;27.880;2023-03-01T01:26:11;101094.22;;;4.20;100.00
56270;BME280;42176;43.240;27.880;2023-03-01T01:28:37;101092.84;;;3.54;100.00
56270;BME280;42176;43.240;27.880;2023-03-01T01:31:04;101087.69;;;3.57;100.00
56270;BME280;42176;43.240;27.880;2023-03-01T01:33:29;101087.44;;;3.87;100.00
56270;BME280;42176;43.240;27.880;2023-03-01T01:35:55;101072.84;;;4.00;100.00
56270;BME280;42176;43.240;27.880;2023-03-01T01:38:20;101083.94;;;4.31;100.00
56270;BME280;42176;43.240;27.880;2023-03-01T01:40:47;101076.78;;;4.24;100.00
56270;BME280;42176;43.240;27.880;2023-03-01T01:43:19;101078.06;;;3.57;100.00
56270;BME280;42176;43.240;27.880;2023-03-01T01:45:45;101055.41;;;3.61;100.00
56270;BME280;42176;43.240;27.880;2023-03-01T01:48:13;101079.78;;;3.98;100.00
56270;BME280;42176;43.240;27.880;2023-03-01T01:50:40;101081.94;;;4.18;100.00
56270;BME280;42176;43.240;27.880;2023-03-01T01:53:10;101097.44;;;4.51;100.00
56270;BME280;42176;43.240;27.880;2023-03-01T01:55:41;101095.06;;;3.76;100.00
56270;BME280;42176;43.240;27.880;2023-03-01T01:58:09;101091.53;;;3.74;100.00
56270;BME280;42176;43.240;27.880;2023-03-01T02:00:36;101102.56;;;3.99;100.00
56270;BME280;42176;43.240;27.880;2023-03-01T02:03:15;101086.34;;;4.19;100.00
56270;BME280;42176;43.240;27.880;2023-03-01T02:05:57;101076.06;;;4.31;100.00
56270;BME280;42176;43.240;27.880;2023-03-01T02:08:27;101072.13;;;3.66;100.00
56270;BME280;42176;43.240;27.880;2023-03-01T02:10:56;101097.75;;;3.79;100.00
56270;BME280;42176;43.240;27.880;2023-03-01T02:13:23;101100.00;;;4.04;100.00
56270;BME280;42176;43.240;27.880;2023-03-01T02:15:48;101082.66;;;4.10;100.00
56270;BME280;42176;43.240;27.880;2023-03-01T02:18:17;101085.91;;;3.56;100.00
56270;BME280;42176;43.240;27.880;2023-03-01T02:23:18;101109.50;;;3.97;100.00
56270;BME280;42176;43.240;27.880;2023-03-01T02:28:40;101081.63;;;3.61;100.00
56270;BME280;42176;43.240;27.880;2023-03-01T02:31:09;101081.59;;;3.58;100.00
56270;BME280;42176;43.240;27.880;2023-03-01T02:33:54;101090.03;;;3.86;100.00
56270;BME280;42176;43.240;27.880;2023-03-01T02:36:23;101086.03;;;4.03;100.00
56270;BME280;42176;43.240;27.880;2023-03-01T02:38:52;101103.81;;;4.18;100.00
56270;BME280;42176;43.240;27.880;2023-03-01T02:41:20;101097.47;;;4.08;100.00
56270;BME280;42176;43.240;27.880;2023-03-01T02:43:46;101102.41;;;3.52;100.00
56270;BME280;42176;43.240;27.880;2023-03-01T02:46:20;101093.25;;;3.72;100.00
56270;BME280;42176;43.240;27.880;2023-03-01T02:48:55;101097.72;;;4.21;100.00
56270;BME280;42176;43.240;27.880;2023-03-01T02:56:39;101111.97;;;3.91;100.00
56270;BME280;42176;43.240;27.880;2023-03-01T02:59:06;101106.16;;;4.04;100.00
56270;BME280;42176;43.240;27.880;2023-03-01T03:01:31;101058.72;;;3.52;100.00
56270;BME280;42176;43.240;27.880;2023-03-01T03:04:11;101108.59;;;3.54;100.00
56270;BME280;42176;43.240;27.880;2023-03-01T03:06:45;101111.63;;;3.74;100.00
56270;BME280;42176;43.240;27.880;2023-03-01T03:09:11;101123.53;;;3.99;100.00
56270;BME280;42176;43.240;27.880;2023-03-01T03:11:37;101117.63;;;4.09;100.00
56270;BME280;42176;43.240;27.880;2023-03-01T03:14:05;101125.69;;;4.19;100.00
56270;BME280;42176;43.240;27.880;2023-03-01T03:16:30;101114.59;;;4.34;100.00
56270;BME280;42176;43.240;27.880;2023-03-01T03:18:56;101103.41;;;3.57;100.00
56270;BME280;42176;43.240;27.880;2023-03-01T03:21:31;101118.13;;;3.13;100.00
56270;BME280;42176;43.240;27.880;2023-03-01T03:23:56;101124.91;;;3.42;100.00
56270;BME280;42176;43.240;27.880;2023-03-01T03:26:22;101129.84;;;3.68;100.00
56270;BME280;42176;43.240;27.880;2023-03-01T03:28:48;101120.72;;;3.90;100.00
56270;BME280;42176;43.240;27.880;2023-03-01T03:31:13;101107.94;;;3.64;100.00
56270;BME280;42176;43.240;27.880;2023-03-01T03:33:39;101111.81;;;3.81;100.00
56270;BME280;42176;43.240;27.880;2023-03-01T03:36:04;101120.56;;;4.25;100.00
56270;BME280;42176;43.240;27.880;2023-03-01T03:38:30;101115.72;;;3.61;100.00
56270;BME280;42176;43.240;27.880;2023-03-01T03:43:27;101114.75;;;3.97;100.00
56270;BME280;42176;43.240;27.880;2023-03-01T03:45:53;101103.94;;;3.81;100.00
56270;BME280;42176;43.240;27.880;2023-03-01T03:48:39;101097.59;;;3.72;100.00
56270;BME280;42176;43.240;27.880;2023-03-01T03:51:06;101083.88;;;3.85;100.00
56270;BME280;42176;43.240;27.880;2023-03-01T03:53:32;101076.25;;;3.97;100.00
56270;BME280;42176;43.240;27.880;2023-03-01T03:55:58;101078.34;;;4.14;100.00
56270;BME280;42176;43.240;27.880;2023-03-01T03:58:25;101077.84;;;3.88;100.00
56270;BME280;42176;43.240;27.880;2023-03-01T04:00:54;101077.03;;;3.50;100.00
56270;BME280;42176;43.240;27.880;2023-03-01T04:03:22;101078.56;;;3.80;100.00
56270;BME280;42176;43.240;27.880;2023-03-01T04:05:48;101050.88;;;3.95;100.00
56270;BME280;42176;43.240;27.880;2023-03-01T04:08:16;101062.72;;;4.19;100.00
56270;BME280;42176;43.240;27.880;2023-03-01T04:10:46;101076.91;;;4.30;100.00
56270;BME280;42176;43.240;27.880;2023-03-01T04:13:16;101057.78;;;4.37;100.00
56270;BME280;42176;43.240;27.880;2023-03-01T04:15:45;101035.84;;;4.34;100.00
56270;BME280;42176;43.240;27.880;2023-03-01T04:18:15;101044.22;;;3.68;100.00
56270;BME280;42176;43.240;27.880;2023-03-01T04:20:41;101051.38;;;3.35;100.00
56270;BME280;42176;43.240;27.880;2023-03-01T04:23:10;101060.72;;;3.64;100.00
56270;BME280;42176;43.240;27.880;2023-03-01T04:25:38;101067.31;;;3.86;100.00
56270;BME280;42176;43.240;27.880;2023-03-01T04:28:04;101071.38;;;4.15;100.00
56270;BME280;42176;43.240;27.880;2023-03-01T04:30:29;101064.13;;;3.60;100.00
56270;BME280;42176;43.240;27.880;2023-03-01T04:32:54;101067.22;;;3.40;100.00
56270;BME280;42176;43.240;27.880;2023-03-01T04:35:20;101081.78;;;3.69;100.00
56270;BME280;42176;43.240;27.880;2023-03-01T04:37:45;101086.03;;;3.62;100.00
56270;BME280;42176;43.240;27.880;2023-03-01T04:40:11;101082.09;;;3.81;100.00
56270;BME280;42176;43.240;27.880;2023-03-01T04:42:41;101095.59;;;4.01;100.00
56270;BME280;42176;43.240;27.880;2023-03-01T04:45:08;101100.47;;;4.25;100.00
56270;BME280;42176;43.240;27.880;2023-03-01T04:47:43;101082.09;;;4.27;100.00
56270;BME280;42176;43.240;27.880;2023-03-01T04:50:11;101084.31;;;3.62;100.00
56270;BME280;42176;43.240;27.880;2023-03-01T04:52:37;101071.38;;;3.32;100.00
56270;BME280;42176;43.240;27.880;2023-03-01T04:55:03;101076.47;;;3.64;100.00
56270;BME280;42176;43.240;27.880;2023-03-01T04:57:30;101075.78;;;3.74;100.00
56270;BME280;42176;43.240;27.880;2023-03-01T04:59:55;101071.53;;;4.24;100.00
56270;BME280;42176;43.240;27.880;2023-03-01T05:02:21;101067.28;;;3.85;100.00
56270;BME280;42176;43.240;27.880;2023-03-01T05:04:46;101079.88;;;4.01;100.00
56270;BME280;42176;43.240;27.880;2023-03-01T05:07:12;101084.94;;;4.38;100.00
56270;BME280;42176;43.240;27.880;2023-03-01T05:09:38;101065.75;;;3.96;100.00
56270;BME280;42176;43.240;27.880;2023-03-01T05:12:04;101065.28;;;3.73;100.00
56270;BME280;42176;43.240;27.880;2023-03-01T05:14:30;101072.72;;;3.94;100.00
56270;BME280;42176;43.240;27.880;2023-03-01T05:16:55;101068.63;;;4.08;100.00
56270;BME280;42176;43.240;27.880;2023-03-01T05:19:29;101062.25;;;4.41;100.00
56270;BME280;42176;43.240;27.880;2023-03-01T05:21:56;101074.31;;;3.86;100.00
56270;BME280;42176;43.240;27.880;2023-03-01T05:24:30;101069.75;;;3.37;100.00
56270;BME280;42176;43.240;27.880;2023-03-01T05:26:56;101071.44;;;3.75;100.00
56270;BME280;42176;43.240;27.880;2023-03-01T05:29:23;101074.63;;;4.01;100.00
56270;BME280;42176;43.240;27.880;2023-03-01T05:31:55;101073.22;;;4.19;100.00
56270;BME280;42176;43.240;27.880;2023-03-01T05:34:32;101078.97;;;4.47;100.00
56270;BME280;42176;43.240;27.880;2023-03-01T05:36:58;101053.31;;;3.86;100.00
56270;BME280;42176;43.240;27.880;2023-03-01T05:39:25;101063.50;;;3.70;100.00
56270;BME280;42176;43.240;27.880;2023-03-01T05:41:53;101079.66;;;3.92;100.00
56270;BME280;42176;43.240;27.880;2023-03-01T05:44:19;101090.91;;;4.29;100.00
56270;BME280;42176;43.240;27.880;2023-03-01T05:46:44;101079.63;;;3.89;100.00
56270;BME280;42176;43.240;27.880;2023-03-01T05:49:10;101069.16;;;3.92;100.00
56270;BME280;42176;43.240;27.880;2023-03-01T05:51:36;101069.59;;;4.14;100.00
56270;BME280;42176;43.240;27.880;2023-03-01T05:54:01;101079.03;;;4.50;100.00
56270;BME280;42176;43.240;27.880;2023-03-01T05:56:27;101062.28;;;3.97;100.00
56270;BME280;42176;43.240;27.880;2023-03-01T05:58:52;101065.13;;;3.65;100.00
56270;BME280;42176;43.240;27.880;2023-03-01T06:01:18;101076.19;;;3.93;100.00
56270;BME280;42176;43.240;27.880;2023-03-01T06:03:43;101068.00;;;4.22;100.00
56270;BME280;42176;43.240;27.880;2023-03-01T06:06:10;101076.16;;;4.37;100.00
56270;BME280;42176;43.240;27.880;2023-03-01T06:08:35;101063.22;;;4.47;100.00
56270;BME280;42176;43.240;27.880;2023-03-01T06:11:00;101072.28;;;3.72;100.00
56270;BME280;42176;43.240;27.880;2023-03-01T06:13:26;101071.84;;;3.93;100.00
56270;BME280;42176;43.240;27.880;2023-03-01T06:15:51;101083.44;;;4.06;100.00
56270;BME280;42176;43.240;27.880;2023-03-01T06:18:17;101080.16;;;4.17;100.00
56270;BME280;42176;43.240;27.880;2023-03-01T06:20:42;101089.72;;;3.70;100.00
56270;BME280;42176;43.240;27.880;2023-03-01T06:23:08;101087.34;;;3.83;100.00
56270;BME280;42176;43.240;27.880;2023-03-01T06:25:33;101087.06;;;4.11;100.00
56270;BME280;42176;43.240;27.880;2023-03-01T06:27:59;101085.66;;;4.31;100.00
56270;BME280;42176;43.240;27.880;2023-03-01T06:30:25;101057.69;;;4.33;100.00
56270;BME280;42176;43.240;27.880;2023-03-01T06:32:52;101060.91;;;4.65;100.00
56270;BME280;42176;43.240;27.880;2023-03-01T06:35:18;101065.59;;;4.85;100.00
56270;BME280;42176;43.240;27.880;2023-03-01T06:37:45;101061.31;;;4.92;100.00
56270;BME280;42176;43.240;27.880;2023-03-01T06:40:12;101045.16;;;4.65;100.00
56270;BME280;42176;43.240;27.880;2023-03-01T06:42:42;101065.44;;;3.80;100.00
56270;BME280;42176;43.240;27.880;2023-03-01T06:45:09;101048.13;;;3.89;100.00
56270;BME280;42176;43.240;27.880;2023-03-01T06:47:34;101061.22;;;4.33;100.00
56270;BME280;42176;43.240;27.880;2023-03-01T06:50:01;101056.53;;;4.66;100.00
56270;BME280;42176;43.240;27.880;2023-03-01T06:52:27;101063.72;;;4.25;100.00
56270;BME280;42176;43.240;27.880;2023-03-01T06:54:52;101042.66;;;4.24;100.00
56270;BME280;42176;43.240;27.880;2023-03-01T06:57:18;101059.56;;;4.38;100.00
56270;BME280;42176;43.240;27.880;2023-03-01T06:59:43;101059.81;;;4.54;100.00
56270;BME280;42176;43.240;27.880;2023-03-01T07:02:11;101056.47;;;4.61;100.00
56270;BME280;42176;43.240;27.880;2023-03-01T07:04:37;101072.78;;;3.97;100.00
56270;BME280;42176;43.240;27.880;2023-03-01T07:07:02;101076.63;;;3.32;100.00
56270;BME280;42176;43.240;27.880;2023-03-01T07:09:28;101077.78;;;3.85;100.00
56270;BME280;42176;43.240;27.880;2023-03-01T07:11:53;101078.47;;;4.19;100.00
56270;BME280;42176;43.240;27.880;2023-03-01T07:14:19;101067.34;;;4.32;100.00
56270;BME280;42176;43.240;27.880;2023-03-01T07:16:45;101091.66;;;3.80;100.00
56270;BME280;42176;43.240;27.880;2023-03-01T07:19:11;101076.50;;;4.08;100.00
56270;BME280;42176;43.240;27.880;2023-03-01T07:21:36;101088.41;;;4.35;100.00
56270;BME280;42176;43.240;27.880;2023-03-01T07:24:06;101075.56;;;4.51;100.00
56270;BME280;42176;43.240;27.880;2023-03-01T07:26:31;101091.63;;;4.22;100.00
56270;BME280;42176;43.240;27.880;2023-03-01T07:28:59;101074.94;;;3.74;100.00
56270;BME280;42176;43.240;27.880;2023-03-01T07:31:25;101088.97;;;4.19;100.00
56270;BME280;42176;43.240;27.880;2023-03-01T07:33:53;101090.97;;;4.34;100.00
56270;BME280;42176;43.240;27.880;2023-03-01T07:36:18;101081.22;;;4.74;100.00
56270;BME280;42176;43.240;27.880;2023-03-01T07:38:44;101088.50;;;3.97;100.00
56270;BME280;42176;43.240;27.880;2023-03-01T07:41:09;101095.88;;;3.72;100.00
56270;BME280;42176;43.240;27.880;2023-03-01T07:43:35;101085.19;;;4.04;100.00
56270;BME280;42176;43.240;27.880;2023-03-01T07:46:01;101066.28;;;4.24;100.00
56270;BME280;42176;43.240;27.880;2023-03-01T07:48:27;101075.81;;;4.66;100.00
56270;BME280;42176;43.240;27.880;2023-03-01T07:50:53;101072.94;;;5.06;100.00
56270;BME280;42176;43.240;27.880;2023-03-01T07:53:18;101073.31;;;4.25;100.00
56270;BME280;42176;43.240;27.880;2023-03-01T07:55:44;101057.91;;;3.55;100.00
56270;BME280;42176;43.240;27.880;2023-03-01T07:58:09;101083.34;;;4.00;100.00
56270;BME280;42176;43.240;27.880;2023-03-01T08:00:35;101084.16;;;4.42;100.00
56270;BME280;42176;43.240;27.880;2023-03-01T08:03:01;101074.13;;;4.71;100.00
56270;BME280;42176;43.240;27.880;2023-03-01T08:05:27;101071.13;;;4.02;100.00
56270;BME280;42176;43.240;27.880;2023-03-01T08:07:53;101064.53;;;3.37;100.00
56270;BME280;42176;43.240;27.880;2023-03-01T08:10:19;101080.72;;;4.02;100.00
56270;BME280;42176;43.240;27.880;2023-03-01T08:12:44;101078.78;;;4.37;100.00
56270;BME280;42176;43.240;27.880;2023-03-01T08:15:10;101074.25;;;4.78;100.00
56270;BME280;42176;43.240;27.880;2023-03-01T08:17:35;101063.44;;;4.11;100.00
56270;BME280;42176;43.240;27.880;2023-03-01T08:20:01;101073.22;;;4.19;100.00
56270;BME280;42176;43.240;27.880;2023-03-01T08:22:28;101090.00;;;4.78;100.00
56270;BME280;42176;43.240;27.880;2023-03-01T08:24:53;101068.53;;;4.50;100.00
56270;BME280;42176;43.240;27.880;2023-03-01T08:27:21;101048.38;;;4.01;100.00
56270;BME280;42176;43.240;27.880;2023-03-01T08:29:46;101060.78;;;4.57;100.00
56270;BME280;42176;43.240;27.880;2023-03-01T08:32:12;101072.66;;;4.87;100.00
56270;BME280;42176;43.240;27.880;2023-03-01T08:34:37;101077.50;;;5.16;100.00
56270;BME280;42176;43.240;27.880;2023-03-01T08:37:02;101063.03;;;5.45;100.00
56270;BME280;42176;43.240;27.880;2023-03-01T08:39:28;101063.53;;;4.65;100.00
56270;BME280;42176;43.240;27.880;2023-03-01T08:41:54;101069.75;;;4.23;100.00
56270;BME280;42176;43.240;27.880;2023-03-01T08:44:19;101082.09;;;4.76;100.00
56270;BME280;42176;43.240;27.880;2023-03-01T08:46:46;101075.66;;;5.12;100.00
56270;BME280;42176;43.240;27.880;2023-03-01T08:49:15;101061.84;;;5.24;100.00
56270;BME280;42176;43.240;27.880;2023-03-01T08:51:42;101070.22;;;5.58;100.00
56270;BME280;42176;43.240;27.880;2023-03-01T08:54:13;101062.72;;;5.91;100.00
56270;BME280;42176;43.240;27.880;2023-03-01T08:56:40;101056.84;;;6.12;100.00
56270;BME280;42176;43.240;27.880;2023-03-01T08:59:06;101050.00;;;6.30;100.00
56270;BME280;42176;43.240;27.880;2023-03-01T09:01:32;101046.44;;;6.24;100.00
56270;BME280;42176;43.240;27.880;2023-03-01T09:03:57;101045.69;;;5.62;100.00
56270;BME280;42176;43.240;27.880;2023-03-01T09:06:23;101055.88;;;4.79;100.00
56270;BME280;42176;43.240;27.880;2023-03-01T09:08:49;101063.44;;;4.59;100.00
56270;BME280;42176;43.240;27.880;2023-03-01T09:11:18;101061.38;;;4.95;100.00
56270;BME280;42176;43.240;27.880;2023-03-01T09:13:45;101038.06;;;5.18;100.00
56270;BME280;42176;43.240;27.880;2023-03-01T09:16:13;101051.03;;;5.69;100.00
56270;BME280;42176;43.240;27.880;2023-03-01T09:18:39;101055.78;;;5.28;100.00
56270;BME280;42176;43.240;27.880;2023-03-01T09:21:06;101053.50;;;4.42;100.00
56270;BME280;42176;43.240;27.880;2023-03-01T09:23:36;101062.28;;;4.95;100.00
56270;BME280;42176;43.240;27.880;2023-03-01T09:26:04;101062.69;;;5.23;100.00
56270;BME280;42176;43.240;27.880;2023-03-01T09:28:30;101069.63;;;5.18;100.00
56270;BME280;42176;43.240;27.880;2023-03-01T09:30:59;101042.03;;;4.37;100.00
56270;BME280;42176;43.240;27.880;2023-03-01T09:33:25;101049.50;;;4.63;100.00
56270;BME280;42176;43.240;27.880;2023-03-01T09:35:56;101064.91;;;4.97;100.00
56270;BME280;42176;43.240;27.880;2023-03-01T09:38:22;101073.94;;;5.13;100.00
56270;BME280;42176;43.240;27.880;2023-03-01T09:40:47;101058.41;;;5.30;100.00
56270;BME280;42176;43.240;27.880;2023-03-01T09:43:21;101067.44;;;5.49;100.00
56270;BME280;42176;43.240;27.880;2023-03-01T09:45:49;101062.38;;;5.64;100.00
56270;BME280;42176;43.240;27.880;2023-03-01T09:48:20;101054.38;;;5.55;100.00
56270;BME280;42176;43.240;27.880;2023-03-01T09:50:50;101054.75;;;4.63;100.00
56270;BME280;42176;43.240;27.880;2023-03-01T09:53:20;101051.53;;;4.80;100.00
56270;BME280;42176;43.240;27.880;2023-03-01T09:56:00;101066.06;;;5.13;100.00
56270;BME280;42176;43.240;27.880;2023-03-01T10:00:59;101051.78;;;4.97;100.00
56270;BME280;42176;43.240;27.880;2023-03-01T10:03:28;101057.25;;;4.55;100.00
56270;BME280;42176;43.240;27.880;2023-03-01T10:06:09;101046.00;;;5.20;100.00
56270;BME280;42176;43.240;27.880;2023-03-01T10:09:02;101030.94;;;4.52;100.00
56270;BME280;42176;43.240;27.880;2023-03-01T10:11:37;101022.91;;;4.45;100.00
56270;BME280;42176;43.240;27.880;2023-03-01T10:16:48;101040.44;;;4.99;100.00
56270;BME280;42176;43.240;27.880;2023-03-01T10:19:22;101039.84;;;5.19;100.00
56270;BME280;42176;43.240;27.880;2023-03-01T10:21:50;101031.22;;;5.26;100.00
56270;BME280;42176;43.240;27.880;2023-03-01T10:24:19;101010.81;;;5.79;100.00
56270;BME280;42176;43.240;27.880;2023-03-01T10:26:56;101026.94;;;4.76;100.00
56270;BME280;42176;43.240;27.880;2023-03-01T10:29:39;101001.72;;;4.32;100.00
56270;BME280;42176;43.240;27.880;2023-03-01T10:32:09;101020.03;;;4.83;100.00
56270;BME280;42176;43.240;27.880;2023-03-01T10:34:36;101020.25;;;4.98;100.00
56270;BME280;42176;43.240;27.880;2023-03-01T10:37:21;101009.31;;;4.18;100.00
56270;BME280;42176;43.240;27.880;2023-03-01T10:40:05;101025.94;;;4.69;100.00
56270;BME280;42176;43.240;27.880;2023-03-01T10:42:35;101014.34;;;5.12;100.00
56270;BME280;42176;43.240;27.880;2023-03-01T10:48:24;100979.63;;;5.36;100.00
56270;BME280;42176;43.240;27.880;2023-03-01T10:51:06;100980.06;;;5.73;100.00
56270;BME280;42176;43.240;27.880;2023-03-01T10:53:44;100979.59;;;6.10;100.00
56270;BME280;42176;43.240;27.880;2023-03-01T10:56:14;100983.47;;;6.46;100.00
56270;BME280;42176;43.240;27.880;2023-03-01T10:59:00;100993.38;;;6.80;100.00
56270;BME280;42176;43.240;27.880;2023-03-01T11:01:28;100989.09;;;6.96;97.46
56270;BME280;42176;43.240;27.880;2023-03-01T11:04:11;100979.75;;;6.25;97.47
56270;BME280;42176;43.240;27.880;2023-03-01T11:06:37;100976.50;;;5.00;100.00
56270;BME280;42176;43.240;27.880;2023-03-01T11:09:33;100985.59;;;5.24;100.00
56270;BME280;42176;43.240;27.880;2023-03-01T11:12:14;100991.31;;;5.58;100.00
56270;BME280;42176;43.240;27.880;2023-03-01T11:14:54;100972.03;;;5.59;100.00
56270;BME280;42176;43.240;27.880;2023-03-01T11:17:30;100992.25;;;5.00;100.00
56270;BME280;42176;43.240;27.880;2023-03-01T11:20:00;100975.28;;;5.40;100.00
56270;BME280;42176;43.240;27.880;2023-03-01T11:22:27;100962.63;;;5.83;100.00
56270;BME280;42176;43.240;27.880;2023-03-01T11:24:54;100961.09;;;5.25;100.00
56270;BME280;42176;43.240;27.880;2023-03-01T11:27:35;100940.59;;;5.72;100.00
56270;BME280;42176;43.240;27.880;2023-03-01T11:30:12;100935.78;;;6.15;100.00
56270;BME280;42176;43.240;27.880;2023-03-01T11:35:24;100929.09;;;5.60;100.00
56270;BME280;42176;43.240;27.880;2023-03-01T11:43:40;100928.19;;;5.61;98.61
56270;BME280;42176;43.240;27.880;2023-03-01T11:51:42;100921.09;;;6.42;97.93
56270;BME280;42176;43.240;27.880;2023-03-01T12:02:52;100917.97;;;5.92;100.00
56270;BME280;42176;43.240;27.880;2023-03-01T12:08:24;100901.03;;;4.90;100.00
56270;BME280;42176;43.240;27.880;2023-03-01T12:16:19;100895.34;;;6.04;99.66
56270;BME280;42176;43.240;27.880;2023-03-01T12:29:56;100885.19;;;6.57;95.37
56270;BME280;42176;43.240;27.880;2023-03-01T12:38:42;100885.38;;;6.88;94.87
56270;BME280;42176;43.240;27.880;2023-03-01T12:49:14;100901.03;;;6.63;89.55
56270;BME280;42176;43.240;27.880;2023-03-01T12:51:46;100889.06;;;5.11;100.00
56270;BME280;42176;43.240;27.880;2023-03-01T12:54:17;100896.81;;;5.00;100.00
56270;BME280;42176;43.240;27.880;2023-03-01T12:56:46;100882.50;;;5.50;100.00
56270;BME280;42176;43.240;27.880;2023-03-01T13:04:53;100905.56;;;5.00;100.00
56270;BME280;42176;43.240;27.880;2023-03-01T13:10:06;100893.41;;;5.87;100.00
56270;BME280;42176;43.240;27.880;2023-03-01T13:20:52;100887.00;;;5.60;100.00
56270;BME280;42176;43.240;27.880;2023-03-01T13:28:47;100897.56;;;5.65;96.50
56270;BME280;42176;43.240;27.880;2023-03-01T13:33:54;100901.41;;;5.18;100.00
56270;BME280;42176;43.240;27.880;2023-03-01T13:38:56;100884.38;;;5.63;99.99
56270;BME280;42176;43.240;27.880;2023-03-01T13:46:58;100884.50;;;4.97;100.00
56270;BME280;42176;43.240;27.880;2023-03-01T13:49:29;100890.16;;;5.31;100.00
56270;BME280;42176;43.240;27.880;2023-03-01T13:51:58;100891.41;;;5.64;100.00
56270;BME280;42176;43.240;27.880;2023-03-01T13:54:33;100882.44;;;5.45;98.51
56270;BME280;42176;43.240;27.880;2023-03-01T13:57:00;100890.59;;;4.93;100.00
56270;BME280;42176;43.240;27.880;2023-03-01T13:59:26;100880.47;;;5.24;100.00
56270;BME280;42176;43.240;27.880;2023-03-01T14:02:01;100882.44;;;5.47;100.00
56270;BME280;42176;43.240;27.880;2023-03-01T14:04:29;100868.66;;;5.70;99.05
56270;BME280;42176;43.240;27.880;2023-03-01T14:07:28;100902.59;;;4.77;100.00
56270;BME280;42176;43.240;27.880;2023-03-01T14:10:00;100897.59;;;4.94;100.00
56270;BME280;42176;43.240;27.880;2023-03-01T14:20:27;100884.13;;;5.39;100.00
56270;BME280;42176;43.240;27.880;2023-03-01T14:22:55;100882.59;;;5.59;100.00
56270;BME280;42176;43.240;27.880;2023-03-01T14:28:05;100882.53;;;5.52;99.45
56270;BME280;42176;43.240;27.880;2023-03-01T14:30:42;100890.78;;;5.09;100.00
56270;BME280;42176;43.240;27.880;2023-03-01T14:36:10;100879.53;;;5.21;100.00
56270;BME280;42176;43.240;27.880;2023-03-01T14:38:39;100888.66;;;4.80;100.00
56270;BME280;42176;43.240;27.880;2023-03-01T14:41:17;100880.22;;;5.06;100.00
56270;BME280;42176;43.240;27.880;2023-03-01T14:43:52;100880.38;;;5.18;100.00
56270;BME280;42176;43.240;27.880;2023-03-01T14:46:19;100888.47;;;4.67;100.00
56270;BME280;42176;43.240;27.880;2023-03-01T14:48:49;100883.63;;;4.98;100.00
56270;BME280;42176;43.240;27.880;2023-03-01T14:51:15;100881.34;;;5.26;100.00